Viking Merlin — 9V5029 — position and weather

sailwx.info

Track history (hours):
 
Tides and Currents Weather Stations Pressure Air Temp Water Temp Dewpoint Dewpoint Depression Visibility Wind Speed Wind Dir Waves Ship Positions

Viking Merlin

Last reported at 2018-Jun-16 18:49 UTC. Time now 2018-Jun-19 01:01 UTC.
Position N 27°21' W 014°03'.

Length 177 m; draft 10.1 m.

Type: Cargo ship. MMSI: 563004700.

Date/timePositionNaut miles runAvg speedWind from/ knotsBaromVisibWave heightAir tempDewpointWater temp
2018-Jun-16 18:49N 27°21' W 014°03'3313.6
2018-Jun-16 16:22N 27°49' W 013°42'713.4
2018-Jun-16 15:52N 27°55' W 013°38'613.2
2018-Jun-16 15:25N 27°60' W 013°34'513.2
2018-Jun-16 15:00N 28°04' W 013°31'2013.3
2018-Jun-16 13:31N 28°21' W 013°18'113.2
2018-Jun-16 13:27N 28°21' W 013°18'1013.2
2018-Jun-16 12:42N 28°30' W 013°11'413.2
2018-Jun-16 12:22N 28°34' W 013°09'513.3
2018-Jun-16 11:57N 28°38' W 013°06'19914.8
2018-Jun-15 22:29N 31°25' W 010°59'38515.3
2018-Jun-14 21:18N 35°57' W 005°33'4 9.6
2018-Jun-14 20:56N 35°55' W 005°29'1 2.0
2018-Jun-14 20:17N 35°54' W 005°29'0 0.0
2018-Jun-14 19:59N 35°54' W 005°29'5 0.4
2018-Jun-14 06:01N 35°54' W 005°36'0 7.9
2018-Jun-14 05:58N 35°54' W 005°36'611.4
2018-Jun-14 05:28N 35°53' W 005°43'1011.5
2018-Jun-14 04:36N 35°53' W 005°56'411.0
2018-Jun-14 04:13N 35°53' W 006°01'2 8.5
2018-Jun-14 04:00N 35°53' W 006°03'14612.3
2018-Jun-13 16:08N 36°29' W 008°59'212.7
2018-Jun-13 16:00N 36°30' W 009°01'11112.0
2018-Jun-13 06:44N 38°11' W 009°58'1412.7
2018-Jun-13 05:35N 38°25' W 010°02'1812.7
2018-Jun-13 04:10N 38°43' W 010°06'212.8
2018-Jun-13 03:58N 38°45' W 010°06'1112.8
2018-Jun-13 03:07N 38°56' W 010°06'112.8
2018-Jun-13 03:01N 38°58' W 010°06'612.4
2018-Jun-13 02:31N 39°04' W 010°06'612.3
2018-Jun-13 02:00N 39°10' W 010°06'612.3
2018-Jun-13 01:30N 39°16' W 010°07'612.7
2018-Jun-13 01:00N 39°23' W 010°06'  
2018-Jun-10 17:25N 49°39' W 003°53'613.6
2018-Jun-10 16:59N 49°41' W 003°46'713.4
2018-Jun-10 16:29N 49°45' W 003°37'613.0
2018-Jun-10 16:00N 49°48' W 003°28'613.0
2018-Jun-10 15:30N 49°51' W 003°20'713.0
2018-Jun-10 15:00N 49°55' W 003°11'1313.5
2018-Jun-10 14:01N 49°58' W 002°51'713.8
2018-Jun-10 13:30N 50°00' W 002°41'714.1
2018-Jun-10 12:59N 50°02' W 002°29'914.9
2018-Jun-10 12:21N 50°05' W 002°15'615.5
2018-Jun-10 11:57N 50°07' W 002°06'716.0
2018-Jun-10 11:29N 50°09' W 001°55'816.6
2018-Jun-10 11:00N 50°11' W 001°43'816.9
2018-Jun-10 10:30N 50°13' W 001°30'816.7
2018-Jun-10 10:01N 50°16' W 001°18'816.5
2018-Jun-10 09:30N 50°18' W 001°05'815.8
2018-Jun-10 09:00N 50°20' W 000°54'815.0
2018-Jun-10 08:30N 50°22' W 000°42'714.3
2018-Jun-10 08:00N 50°24' W 000°31'714.0
2018-Jun-10 07:30N 50°26' W 000°21'713.6
2018-Jun-10 06:58N 50°28' W 000°10'613.0
2018-Jun-10 06:31N 50°30' W 000°01'712.8
2018-Jun-10 06:00N 50°31' E 000°09'612.7
2018-Jun-10 05:31N 50°33' E 000°19'612.8
2018-Jun-10 05:00N 50°35' E 000°28'713.1
2018-Jun-10 04:31N 50°38' E 000°38'714.0
2018-Jun-10 04:01N 50°42' E 000°46'714.6
2018-Jun-10 03:30N 50°46' E 000°56'815.3
2018-Jun-10 03:01N 50°51' E 001°05'815.6
2018-Jun-10 02:30N 50°57' E 001°14'815.8
2018-Jun-10 02:01N 51°02' E 001°23'815.3
2018-Jun-10 01:30N 51°07' E 001°32'714.6
2018-Jun-10 01:00N 51°12' E 001°41'713.5
2018-Jun-10 00:30N 51°17' E 001°48'713.5
2018-Jun-10 00:00N 51°22' E 001°55'510.7
2018-Jun-09 23:31N 51°24' E 002°03'713.6
2018-Jun-09 23:00N 51°21' E 002°13'612.5
2018-Jun-09 22:31N 51°21' E 002°23'713.1
2018-Jun-09 22:00N 51°22' E 002°33'714.0
2018-Jun-09 21:30N 51°22' E 002°44'612.0
2018-Jun-09 21:01N 51°23' E 002°54'714.7
2018-Jun-09 20:31N 51°24' E 003°05'714.5
2018-Jun-09 20:00N 51°24' E 003°17'714.5
2018-Jun-09 19:30N 51°25' E 003°29'510.2
2018-Jun-09 19:00N 51°26' E 003°37'510.6
2018-Jun-09 18:31N 51°23' E 003°43'612.8
2018-Jun-09 18:00N 51°21' E 003°53'612.9
2018-Jun-09 17:30N 51°26' E 003°60'612.2
2018-Jun-09 17:00N 51°22' E 004°07'510.1
2018-Jun-09 16:30N 51°21' E 004°15'1 1.9
2018-Jun-09 16:01N 51°21' E 004°16'0 0.0
2018-Jun-09 15:31N 51°21' E 004°16'0 0.0
2018-Jun-09 14:28N 51°21' E 004°16'0 0.0
2018-Jun-09 14:01N 51°21' E 004°16'0 0.0
2018-Jun-09 13:30N 51°21' E 004°16'0 0.0
2018-Jun-09 13:01N 51°21' E 004°16'0 0.0
2018-Jun-09 12:31N 51°21' E 004°16'0 0.0
2018-Jun-09 11:58N 51°21' E 004°16'0 0.0
2018-Jun-09 11:30N 51°21' E 004°16'0 0.0
2018-Jun-09 11:01N 51°21' E 004°16'0 0.0
2018-Jun-09 10:29N 51°21' E 004°16'0 0.0
2018-Jun-09 10:00N 51°21' E 004°16'0 0.0
2018-Jun-09 09:30N 51°21' E 004°16'0 0.0
2018-Jun-09 09:01N 51°21' E 004°16'0 0.0
2018-Jun-09 08:31N 51°21' E 004°16'0 0.0
2018-Jun-09 08:00N 51°21' E 004°16'0 0.0
2018-Jun-09 07:31N 51°21' E 004°16'0 0.0
2018-Jun-09 07:00N 51°21' E 004°16'0 0.0
2018-Jun-09 06:30N 51°21' E 004°16'0 0.0
2018-Jun-09 05:58N 51°21' E 004°16'0 0.0
2018-Jun-09 05:30N 51°21' E 004°16'0 0.0
2018-Jun-09 05:01N 51°21' E 004°16'0 0.0
2018-Jun-09 04:31N 51°21' E 004°16'0 0.0
2018-Jun-09 04:00N 51°21' E 004°16'0 0.5
2018-Jun-09 03:30N 51°21' E 004°16'4 8.8
2018-Jun-09 03:01N 51°24' E 004°11'510.9
2018-Jun-09 02:30N 51°24' E 004°02'3 6.4
2018-Jun-09 02:00N 51°23' E 003°57'612.1
2018-Jun-09 01:30N 51°21' E 003°48'612.8
2018-Jun-09 01:00N 51°26' E 003°41'510.1
2018-Jun-09 00:30N 51°25' E 003°33'4 8.0
2018-Jun-09 00:00N 51°25' E 003°27'612.8
2018-Jun-08 23:30N 51°24' E 003°16'510.4
2018-Jun-08 23:00N 51°24' E 003°08'611.3
2018-Jun-08 22:30N 51°23' E 002°59'714.8
2018-Jun-08 22:00N 51°22' E 002°48'4 8.9
2018-Jun-08 21:30N 51°24' E 002°42'1 2.5
2018-Jun-08 21:00N 51°26' E 002°41'1 2.6
2018-Jun-08 20:28N 51°26' E 002°39'0 0.2
2018-Jun-08 19:58N 51°26' E 002°39'0 0.1
2018-Jun-08 19:25N 51°26' E 002°39'0 0.0
2018-Jun-08 18:55N 51°26' E 002°39'0 0.0
2018-Jun-08 18:22N 51°26' E 002°39'0 0.0
2018-Jun-08 17:43N 51°26' E 002°39'0 0.0
2018-Jun-08 17:28N 51°26' E 002°39'0 0.0
2018-Jun-08 16:49N 51°26' E 002°39'0 0.0
2018-Jun-08 16:25N 51°26' E 002°39'0 0.0
2018-Jun-08 15:58N 51°26' E 002°39'0 0.0
2018-Jun-08 15:28N 51°26' E 002°39'0 0.1
2018-Jun-08 14:58N 51°26' E 002°39'2 5.4
2018-Jun-08 14:30N 51°24' E 002°41'4 8.7
2018-Jun-08 14:00N 51°22' E 002°34'4 8.9
2018-Jun-08 13:31N 51°21' E 002°27'5 9.0
2018-Jun-08 13:00N 51°19' E 002°21'5 9.1
2018-Jun-08 12:30N 51°16' E 002°15'5 9.6
2018-Jun-08 12:01N 51°14' E 002°08'5 9.9
2018-Jun-08 11:30N 51°11' E 002°01'510.0
2018-Jun-08 10:59N 51°09' E 001°54'510.1
2018-Jun-08 10:30N 51°06' E 001°47'510.4
2018-Jun-08 10:01N 51°03' E 001°42'510.6
2018-Jun-08 09:30N 50°59' E 001°36'711.0
2018-Jun-08 08:55N 50°54' E 001°29'511.3
2018-Jun-08 08:28N 50°49' E 001°27'511.0
2018-Jun-08 08:00N 50°44' E 001°24'510.9
2018-Jun-08 07:31N 50°40' E 001°18'610.9
2018-Jun-08 06:56N 50°36' E 001°11'3810.7
2018-Jun-08 03:25N 50°20' E 000°17'511.5
2018-Jun-08 03:01N 50°19' E 000°10'611.4
2018-Jun-08 02:28N 50°18' E 000°01'511.2
2018-Jun-08 02:00N 50°17' W 000°07'611.2
2018-Jun-08 01:31N 50°15' W 000°16'611.2
2018-Jun-08 00:58N 50°14' W 000°25'511.3
2018-Jun-08 00:31N 50°12' W 000°33'611.2
2018-Jun-08 00:00N 50°11' W 000°41'510.9
2018-Jun-07 23:30N 50°10' W 000°50'510.5
2018-Jun-07 23:01N 50°08' W 000°57'5 9.9
2018-Jun-07 22:30N 50°07' W 001°05'5 9.7
2018-Jun-07 22:00N 50°06' W 001°12'5 9.3
2018-Jun-07 21:30N 50°05' W 001°19'4 8.9
2018-Jun-07 21:00N 50°03' W 001°26'4 8.7
2018-Jun-07 20:30N 50°02' W 001°32'4 8.4
2018-Jun-07 20:00N 50°01' W 001°39'4 8.5
2018-Jun-07 19:30N 50°00' W 001°45'4 8.7
2018-Jun-07 19:00N 49°59' W 001°52'4 8.9
2018-Jun-07 18:30N 49°58' W 001°58'5 9.5
2018-Jun-07 18:00N 49°56' W 002°05'5 9.9
2018-Jun-07 17:30N 49°55' W 002°13'12212.0
2018-Jun-07 07:23N 49°00' W 005°00'615.2
2018-Jun-07 07:00N 48°57' W 005°08'815.4
2018-Jun-07 06:30N 48°53' W 005°18'815.2
2018-Jun-07 06:00N 48°50' W 005°28'9116.9
2018-Jun-07 00:38N 47°31' W 006°36'  
Track history (hours):
 
Tides and Currents Weather Stations Pressure Air Temp Water Temp Dewpoint Dewpoint Depression Visibility Wind Speed Wind Dir Waves Ship Positions

Viking Merlin

Last reported at 2018-Jun-16 18:49 UTC. Time now 2018-Jun-19 01:01 UTC.
Position N 27°21' W 014°03'.

Length 177 m; draft 10.1 m.

Type: Cargo ship. MMSI: 563004700.

Date/timePositionNaut miles runAvg speedWind from/ knotsBaromVisibWave heightAir tempDewpointWater temp
2018-Jun-16 18:49N 27°21' W 014°03'3313.6
2018-Jun-16 16:22N 27°49' W 013°42'713.4
2018-Jun-16 15:52N 27°55' W 013°38'613.2
2018-Jun-16 15:25N 27°60' W 013°34'513.2
2018-Jun-16 15:00N 28°04' W 013°31'2013.3
2018-Jun-16 13:31N 28°21' W 013°18'113.2
2018-Jun-16 13:27N 28°21' W 013°18'1013.2
2018-Jun-16 12:42N 28°30' W 013°11'413.2
2018-Jun-16 12:22N 28°34' W 013°09'513.3
2018-Jun-16 11:57N 28°38' W 013°06'19914.8
2018-Jun-15 22:29N 31°25' W 010°59'38515.3
2018-Jun-14 21:18N 35°57' W 005°33'4 9.6
2018-Jun-14 20:56N 35°55' W 005°29'1 2.0
2018-Jun-14 20:17N 35°54' W 005°29'0 0.0
2018-Jun-14 19:59N 35°54' W 005°29'5 0.4
2018-Jun-14 06:01N 35°54' W 005°36'0 7.9
2018-Jun-14 05:58N 35°54' W 005°36'611.4
2018-Jun-14 05:28N 35°53' W 005°43'1011.5
2018-Jun-14 04:36N 35°53' W 005°56'411.0
2018-Jun-14 04:13N 35°53' W 006°01'2 8.5
2018-Jun-14 04:00N 35°53' W 006°03'14612.3
2018-Jun-13 16:08N 36°29' W 008°59'212.7
2018-Jun-13 16:00N 36°30' W 009°01'11112.0
2018-Jun-13 06:44N 38°11' W 009°58'1412.7
2018-Jun-13 05:35N 38°25' W 010°02'1812.7
2018-Jun-13 04:10N 38°43' W 010°06'212.8
2018-Jun-13 03:58N 38°45' W 010°06'1112.8
2018-Jun-13 03:07N 38°56' W 010°06'112.8
2018-Jun-13 03:01N 38°58' W 010°06'612.4
2018-Jun-13 02:31N 39°04' W 010°06'612.3
2018-Jun-13 02:00N 39°10' W 010°06'612.3
2018-Jun-13 01:30N 39°16' W 010°07'612.7
2018-Jun-13 01:00N 39°23' W 010°06'  
2018-Jun-10 17:25N 49°39' W 003°53'613.6
2018-Jun-10 16:59N 49°41' W 003°46'713.4
2018-Jun-10 16:29N 49°45' W 003°37'613.0
2018-Jun-10 16:00N 49°48' W 003°28'613.0
2018-Jun-10 15:30N 49°51' W 003°20'713.0
2018-Jun-10 15:00N 49°55' W 003°11'1313.5
2018-Jun-10 14:01N 49°58' W 002°51'713.8
2018-Jun-10 13:30N 50°00' W 002°41'714.1
2018-Jun-10 12:59N 50°02' W 002°29'914.9
2018-Jun-10 12:21N 50°05' W 002°15'615.5
2018-Jun-10 11:57N 50°07' W 002°06'716.0
2018-Jun-10 11:29N 50°09' W 001°55'816.6
2018-Jun-10 11:00N 50°11' W 001°43'816.9
2018-Jun-10 10:30N 50°13' W 001°30'816.7
2018-Jun-10 10:01N 50°16' W 001°18'816.5
2018-Jun-10 09:30N 50°18' W 001°05'815.8
2018-Jun-10 09:00N 50°20' W 000°54'815.0
2018-Jun-10 08:30N 50°22' W 000°42'714.3
2018-Jun-10 08:00N 50°24' W 000°31'714.0
2018-Jun-10 07:30N 50°26' W 000°21'713.6
2018-Jun-10 06:58N 50°28' W 000°10'613.0
2018-Jun-10 06:31N 50°30' W 000°01'712.8
2018-Jun-10 06:00N 50°31' E 000°09'612.7
2018-Jun-10 05:31N 50°33' E 000°19'612.8
2018-Jun-10 05:00N 50°35' E 000°28'713.1
2018-Jun-10 04:31N 50°38' E 000°38'714.0
2018-Jun-10 04:01N 50°42' E 000°46'714.6
2018-Jun-10 03:30N 50°46' E 000°56'815.3
2018-Jun-10 03:01N 50°51' E 001°05'815.6
2018-Jun-10 02:30N 50°57' E 001°14'815.8
2018-Jun-10 02:01N 51°02' E 001°23'815.3
2018-Jun-10 01:30N 51°07' E 001°32'714.6
2018-Jun-10 01:00N 51°12' E 001°41'713.5
2018-Jun-10 00:30N 51°17' E 001°48'713.5
2018-Jun-10 00:00N 51°22' E 001°55'510.7
2018-Jun-09 23:31N 51°24' E 002°03'713.6
2018-Jun-09 23:00N 51°21' E 002°13'612.5
2018-Jun-09 22:31N 51°21' E 002°23'713.1
2018-Jun-09 22:00N 51°22' E 002°33'714.0
2018-Jun-09 21:30N 51°22' E 002°44'612.0
2018-Jun-09 21:01N 51°23' E 002°54'714.7
2018-Jun-09 20:31N 51°24' E 003°05'714.5
2018-Jun-09 20:00N 51°24' E 003°17'714.5
2018-Jun-09 19:30N 51°25' E 003°29'510.2
2018-Jun-09 19:00N 51°26' E 003°37'510.6
2018-Jun-09 18:31N 51°23' E 003°43'612.8
2018-Jun-09 18:00N 51°21' E 003°53'612.9
2018-Jun-09 17:30N 51°26' E 003°60'612.2
2018-Jun-09 17:00N 51°22' E 004°07'510.1
2018-Jun-09 16:30N 51°21' E 004°15'1 1.9
2018-Jun-09 16:01N 51°21' E 004°16'0 0.0
2018-Jun-09 15:31N 51°21' E 004°16'0 0.0
2018-Jun-09 14:28N 51°21' E 004°16'0 0.0
2018-Jun-09 14:01N 51°21' E 004°16'0 0.0
2018-Jun-09 13:30N 51°21' E 004°16'0 0.0
2018-Jun-09 13:01N 51°21' E 004°16'0 0.0
2018-Jun-09 12:31N 51°21' E 004°16'0 0.0
2018-Jun-09 11:58N 51°21' E 004°16'0 0.0
2018-Jun-09 11:30N 51°21' E 004°16'0 0.0
2018-Jun-09 11:01N 51°21' E 004°16'0 0.0
2018-Jun-09 10:29N 51°21' E 004°16'0 0.0
2018-Jun-09 10:00N 51°21' E 004°16'0 0.0
2018-Jun-09 09:30N 51°21' E 004°16'0 0.0
2018-Jun-09 09:01N 51°21' E 004°16'0 0.0
2018-Jun-09 08:31N 51°21' E 004°16'0 0.0
2018-Jun-09 08:00N 51°21' E 004°16'0 0.0
2018-Jun-09 07:31N 51°21' E 004°16'0 0.0
2018-Jun-09 07:00N 51°21' E 004°16'0 0.0
2018-Jun-09 06:30N 51°21' E 004°16'0 0.0
2018-Jun-09 05:58N 51°21' E 004°16'0 0.0
2018-Jun-09 05:30N 51°21' E 004°16'0 0.0
2018-Jun-09 05:01N 51°21' E 004°16'0 0.0
2018-Jun-09 04:31N 51°21' E 004°16'0 0.0
2018-Jun-09 04:00N 51°21' E 004°16'0 0.5
2018-Jun-09 03:30N 51°21' E 004°16'4 8.8
2018-Jun-09 03:01N 51°24' E 004°11'510.9
2018-Jun-09 02:30N 51°24' E 004°02'3 6.4
2018-Jun-09 02:00N 51°23' E 003°57'612.1
2018-Jun-09 01:30N 51°21' E 003°48'612.8
2018-Jun-09 01:00N 51°26' E 003°41'510.1
2018-Jun-09 00:30N 51°25' E 003°33'4 8.0
2018-Jun-09 00:00N 51°25' E 003°27'612.8
2018-Jun-08 23:30N 51°24' E 003°16'510.4
2018-Jun-08 23:00N 51°24' E 003°08'611.3
2018-Jun-08 22:30N 51°23' E 002°59'714.8
2018-Jun-08 22:00N 51°22' E 002°48'4 8.9
2018-Jun-08 21:30N 51°24' E 002°42'1 2.5
2018-Jun-08 21:00N 51°26' E 002°41'1 2.6
2018-Jun-08 20:28N 51°26' E 002°39'0 0.2
2018-Jun-08 19:58N 51°26' E 002°39'0 0.1
2018-Jun-08 19:25N 51°26' E 002°39'0 0.0
2018-Jun-08 18:55N 51°26' E 002°39'0 0.0
2018-Jun-08 18:22N 51°26' E 002°39'0 0.0
2018-Jun-08 17:43N 51°26' E 002°39'0 0.0
2018-Jun-08 17:28N 51°26' E 002°39'0 0.0
2018-Jun-08 16:49N 51°26' E 002°39'0 0.0
2018-Jun-08 16:25N 51°26' E 002°39'0 0.0
2018-Jun-08 15:58N 51°26' E 002°39'0 0.0
2018-Jun-08 15:28N 51°26' E 002°39'0 0.1
2018-Jun-08 14:58N 51°26' E 002°39'2 5.4
2018-Jun-08 14:30N 51°24' E 002°41'4 8.7
2018-Jun-08 14:00N 51°22' E 002°34'4 8.9
2018-Jun-08 13:31N 51°21' E 002°27'5 9.0
2018-Jun-08 13:00N 51°19' E 002°21'5 9.1
2018-Jun-08 12:30N 51°16' E 002°15'5 9.6
2018-Jun-08 12:01N 51°14' E 002°08'5 9.9
2018-Jun-08 11:30N 51°11' E 002°01'510.0
2018-Jun-08 10:59N 51°09' E 001°54'510.1
2018-Jun-08 10:30N 51°06' E 001°47'510.4
2018-Jun-08 10:01N 51°03' E 001°42'510.6
2018-Jun-08 09:30N 50°59' E 001°36'711.0
2018-Jun-08 08:55N 50°54' E 001°29'511.3
2018-Jun-08 08:28N 50°49' E 001°27'511.0
2018-Jun-08 08:00N 50°44' E 001°24'510.9
2018-Jun-08 07:31N 50°40' E 001°18'610.9
2018-Jun-08 06:56N 50°36' E 001°11'3810.7
2018-Jun-08 03:25N 50°20' E 000°17'511.5
2018-Jun-08 03:01N 50°19' E 000°10'611.4
2018-Jun-08 02:28N 50°18' E 000°01'511.2
2018-Jun-08 02:00N 50°17' W 000°07'611.2
2018-Jun-08 01:31N 50°15' W 000°16'611.2
2018-Jun-08 00:58N 50°14' W 000°25'511.3
2018-Jun-08 00:31N 50°12' W 000°33'611.2
2018-Jun-08 00:00N 50°11' W 000°41'510.9
2018-Jun-07 23:30N 50°10' W 000°50'510.5
2018-Jun-07 23:01N 50°08' W 000°57'5 9.9
2018-Jun-07 22:30N 50°07' W 001°05'5 9.7
2018-Jun-07 22:00N 50°06' W 001°12'5 9.3
2018-Jun-07 21:30N 50°05' W 001°19'4 8.9
2018-Jun-07 21:00N 50°03' W 001°26'4 8.7
2018-Jun-07 20:30N 50°02' W 001°32'4 8.4
2018-Jun-07 20:00N 50°01' W 001°39'4 8.5
2018-Jun-07 19:30N 50°00' W 001°45'4 8.7
2018-Jun-07 19:00N 49°59' W 001°52'4 8.9
2018-Jun-07 18:30N 49°58' W 001°58'5 9.5
2018-Jun-07 18:00N 49°56' W 002°05'5 9.9
2018-Jun-07 17:30N 49°55' W 002°13'12212.0
2018-Jun-07 07:23N 49°00' W 005°00'615.2
2018-Jun-07 07:00N 48°57' W 005°08'815.4
2018-Jun-07 06:30N 48°53' W 005°18'815.2
2018-Jun-07 06:00N 48°50' W 005°28'9116.9
2018-Jun-07 00:38N 47°31' W 006°36'  

Dump ship's entire track history